Time;durP1;ratioP1;P1;durP2;ratioP2;P2;SDS_P1;SDS_P2;PMS_P1;PMS_P2;Temp;Humidity;BMP_temperature;BMP_pressure;BME280_temperature;BME280_humidity;BME280_pressure;Samples;Min_cycle;Max_cycle;Signal;HPM_P1;HPM_P2
2023/06/11 00:00:49;;;;;;;6.47;2.72;;;26.90;99.90;;;;;;5075523;28;20036;-51
2023/06/11 00:03:20;;;;;;;7.38;2.97;;;26.90;99.90;;;;;;5074946;28;20396;-51
2023/06/11 00:05:47;;;;;;;19.42;3.20;;;26.90;99.90;;;;;;5074900;28;20021;-51
2023/06/11 00:08:12;;;;;;;5.28;2.50;;;26.90;99.90;;;;;;5072924;28;20036;-51
2023/06/11 00:10:38;;;;;;;11.23;3.55;;;26.90;99.90;;;;;;5074674;28;20112;-51
2023/06/11 00:13:04;;;;;;;8.80;2.65;;;26.80;99.90;;;;;;5074498;28;20032;-51
2023/06/11 00:15:30;;;;;;;9.88;3.40;;;26.80;99.90;;;;;;5074709;28;20021;-51
2023/06/11 00:17:56;;;;;;;8.32;2.80;;;26.80;99.90;;;;;;5072839;28;20491;-49
2023/06/11 00:20:22;;;;;;;7.90;2.60;;;26.80;99.90;;;;;;5073250;28;20052;-51
2023/06/11 00:22:48;;;;;;;9.00;2.60;;;26.80;99.90;;;;;;5074184;28;20036;-51
2023/06/11 00:25:14;;;;;;;17.13;3.90;;;26.80;99.90;;;;;;5072539;28;20107;-50
2023/06/11 00:27:40;;;;;;;11.30;2.97;;;26.80;99.90;;;;;;5074567;28;20086;-51
2023/06/11 00:30:06;;;;;;;8.32;3.50;;;26.80;99.90;;;;;;5071783;28;20480;-51
2023/06/11 00:32:34;;;;;;;10.93;3.50;;;26.80;99.90;;;;;;5074187;28;20138;-51
2023/06/11 00:35:01;;;;;;;8.75;3.28;;;26.80;99.90;;;;;;5072782;28;20130;-50
2023/06/11 00:37:30;;;;;;;9.13;3.00;;;26.80;99.90;;;;;;5073748;28;20021;-51
2023/06/11 00:39:56;;;;;;;9.35;3.00;;;26.70;99.90;;;;;;5072613;28;20029;-50
2023/06/11 00:42:22;;;;;;;6.88;2.30;;;26.80;99.90;;;;;;5072157;28;20028;-48
2023/06/11 00:44:47;;;;;;;6.50;2.42;;;26.80;99.90;;;;;;5073974;28;20475;-49
2023/06/11 00:47:18;;;;;;;5.35;2.50;;;26.80;99.90;;;;;;5073646;28;20111;-51
2023/06/11 00:49:44;;;;;;;4.22;1.75;;;26.80;99.90;;;;;;5056387;28;20393;-53
2023/06/11 00:52:14;;;;;;;6.32;2.08;;;26.80;99.90;;;;;;5072774;28;20024;-54
2023/06/11 00:54:41;;;;;;;6.07;2.13;;;26.70;99.90;;;;;;5073940;28;20025;-49
2023/06/11 00:57:07;;;;;;;4.60;1.85;;;26.70;99.90;;;;;;5073706;28;20047;-51
2023/06/11 00:59:34;;;;;;;4.95;2.17;;;26.70;99.90;;;;;;5072774;28;20488;-50
2023/06/11 01:02:17;;;;;;;6.22;2.05;;;26.60;99.90;;;;;;5073019;28;20028;-51
2023/06/11 01:04:45;;;;;;;4.05;1.63;;;26.60;99.90;;;;;;5061306;28;20020;-51
2023/06/11 01:07:15;;;;;;;3.83;1.70;;;26.60;99.90;;;;;;5073302;28;20044;-51
2023/06/11 01:09:43;;;;;;;9.25;2.00;;;26.50;99.90;;;;;;5065719;28;20377;-51
2023/06/11 01:12:10;;;;;;;4.30;2.20;;;26.50;99.90;;;;;;5068419;28;20025;-51
2023/06/11 01:14:36;;;;;;;7.82;2.35;;;26.50;99.90;;;;;;5073572;28;20012;-51
2023/06/11 01:17:29;;;;;;;4.93;1.67;;;26.40;99.90;;;;;;5071790;28;20028;-51
2023/06/11 01:20:13;;;;;;;3.88;1.67;;;26.40;99.90;;;;;;5072589;28;20020;-51
2023/06/11 01:23:20;;;;;;;5.35;1.98;;;26.40;99.90;;;;;;5073228;28;20019;-51
2023/06/11 01:25:54;;;;;;;6.93;2.10;;;26.40;99.90;;;;;;5072854;28;20035;-52
2023/06/11 01:28:28;;;;;;;6.30;1.73;;;26.40;99.90;;;;;;5072896;28;20059;-52
2023/06/11 01:30:57;;;;;;;4.55;1.65;;;26.40;99.90;;;;;;5073380;28;20372;-52
2023/06/11 01:33:24;;;;;;;4.47;1.25;;;26.30;99.90;;;;;;5072935;28;20030;-52
2023/06/11 01:35:57;;;;;;;2.40;1.30;;;26.30;99.90;;;;;;5073133;28;20108;-51
2023/06/11 01:38:25;;;;;;;5.68;1.38;;;26.30;99.90;;;;;;5073139;28;20052;-51
2023/06/11 01:40:52;;;;;;;;;;;26.30;99.90;;;;;;5072153;28;20028;-52
2023/06/11 01:43:18;;;;;;;3.65;1.40;;;26.30;99.90;;;;;;5073011;28;20349;-52
2023/06/11 01:45:43;;;;;;;2.42;1.25;;;26.30;99.90;;;;;;5072925;28;20032;-52
2023/06/11 01:48:09;;;;;;;3.00;1.33;;;26.30;99.90;;;;;;5072561;28;20036;-51
2023/06/11 01:50:35;;;;;;;2.13;1.52;;;26.30;99.90;;;;;;5072688;28;20039;-52
2023/06/11 01:53:01;;;;;;;1.60;1.20;;;26.30;99.90;;;;;;5072164;28;20027;-53
2023/06/11 01:55:27;;;;;;;3.65;1.40;;;26.30;99.90;;;;;;5072994;28;20035;-52
2023/06/11 01:57:53;;;;;;;3.90;1.30;;;26.30;99.90;;;;;;5072955;28;20028;-51
2023/06/11 02:00:19;;;;;;;9.18;1.80;;;26.30;99.90;;;;;;5081383;23;20009;-48
2023/06/11 02:02:47;;;;;;;2.67;1.17;;;26.30;99.90;;;;;;5032380;28;20045;-49
2023/06/11 02:05:13;;;;;;;5.80;1.85;;;26.30;99.90;;;;;;5032772;28;20022;-49
2023/06/11 02:07:39;;;;;;;14.60;2.42;;;26.30;99.90;;;;;;5032646;28;20359;-49
2023/06/11 02:10:05;;;;;;;4.82;1.50;;;26.30;99.90;;;;;;5032632;28;20029;-49
2023/06/11 02:12:31;;;;;;;3.35;1.30;;;26.30;99.90;;;;;;5032455;28;20026;-50
2023/06/11 02:14:57;;;;;;;3.47;1.50;;;26.30;99.90;;;;;;5032809;28;20032;-50
2023/06/11 02:17:23;;;;;;;7.20;2.40;;;26.30;99.90;;;;;;5032475;28;20444;-49
2023/06/11 02:19:49;;;;;;;10.10;3.33;;;26.30;99.90;;;;;;5032530;28;20101;-49
2023/06/11 02:22:15;;;;;;;5.30;2.10;;;26.30;99.90;;;;;;5032525;28;20088;-50
2023/06/11 02:24:41;;;;;;;8.82;2.20;;;26.30;99.90;;;;;;5032281;28;20049;-50
2023/06/11 02:27:07;;;;;;;7.82;2.33;;;26.20;99.90;;;;;;5032061;28;20474;-51
2023/06/11 02:29:33;;;;;;;8.85;2.30;;;26.10;99.90;;;;;;5032494;28;20026;-50
2023/06/11 02:31:58;;;;;;;6.47;1.60;;;26.10;99.90;;;;;;5031953;28;20462;-49
2023/06/11 02:34:24;;;;;;;6.03;1.92;;;26.00;99.90;;;;;;5023384;28;20071;-49
2023/06/11 02:36:50;;;;;;;11.77;2.90;;;26.00;99.90;;;;;;5022249;28;20029;-50
2023/06/11 02:39:16;;;;;;;6.90;2.53;;;26.00;99.90;;;;;;5032461;28;20052;-50
2023/06/11 02:41:42;;;;;;;7.30;2.42;;;26.00;99.90;;;;;;5020185;28;20025;-49
2023/06/11 02:44:07;;;;;;;7.85;2.00;;;25.90;99.90;;;;;;5022704;28;20431;-49
2023/06/11 02:46:33;;;;;;;6.82;3.05;;;25.90;99.90;;;;;;5030742;28;20022;-49
2023/06/11 02:48:59;;;;;;;5.43;1.90;;;25.80;99.90;;;;;;5021291;28;20042;-49
2023/06/11 02:51:25;;;;;;;3.70;1.67;;;25.80;99.90;;;;;;5032231;28;20382;-49
2023/06/11 02:53:50;;;;;;;4.53;1.90;;;25.80;99.90;;;;;;5033216;28;20489;-49
2023/06/11 02:56:16;;;;;;;3.80;1.65;;;25.80;99.90;;;;;;5035193;28;20028;-49
2023/06/11 02:58:42;;;;;;;2.88;1.23;;;25.80;99.90;;;;;;5024765;28;20029;-49
2023/06/11 03:01:07;;;;;;;5.32;1.42;;;25.80;99.90;;;;;;5034701;28;20029;-49
2023/06/11 03:03:33;;;;;;;4.15;1.38;;;25.80;99.90;;;;;;5030600;28;20382;-49
2023/06/11 03:05:59;;;;;;;3.30;1.25;;;25.80;99.90;;;;;;5032939;28;20024;-49
2023/06/11 03:08:25;;;;;;;3.53;2.30;;;25.80;99.90;;;;;;5030362;28;20038;-50
2023/06/11 03:10:50;;;;;;;5.53;2.67;;;25.80;99.90;;;;;;5026042;28;20037;-49
2023/06/11 03:13:16;;;;;;;3.15;1.17;;;25.80;99.90;;;;;;5024480;28;20030;-49
2023/06/11 03:15:42;;;;;;;5.32;1.40;;;25.80;99.90;;;;;;5017513;28;20030;-49
2023/06/11 03:18:07;;;;;;;3.75;1.63;;;25.80;99.90;;;;;;5025751;28;20029;-49
2023/06/11 03:20:33;;;;;;;6.40;1.88;;;25.80;99.90;;;;;;5031377;28;20108;-49
2023/06/11 03:22:59;;;;;;;3.63;1.40;;;25.80;99.90;;;;;;5030357;28;20022;-49
2023/06/11 03:25:25;;;;;;;5.88;1.85;;;25.70;99.90;;;;;;5034425;28;20025;-49
2023/06/11 03:27:50;;;;;;;4.38;1.80;;;25.70;99.90;;;;;;5035488;28;20506;-50
2023/06/11 03:30:16;;;;;;;3.88;1.75;;;25.70;99.90;;;;;;5029026;28;20057;-49
2023/06/11 03:32:42;;;;;;;5.65;2.00;;;25.60;99.90;;;;;;5017144;28;20033;-49
2023/06/11 03:35:08;;;;;;;6.45;2.00;;;25.50;99.90;;;;;;5020535;28;20030;-49
2023/06/11 03:37:34;;;;;;;8.45;1.83;;;25.40;99.90;;;;;;5033610;28;20029;-49
2023/06/11 03:39:59;;;;;;;8.68;1.77;;;25.40;99.90;;;;;;5023853;28;20043;-49
2023/06/11 03:42:25;;;;;;;8.13;1.92;;;25.40;99.90;;;;;;5035026;28;20079;-49
2023/06/11 03:44:53;;;;;;;6.10;2.05;;;25.30;99.90;;;;;;5028312;28;20408;-50
2023/06/11 03:47:19;;;;;;;10.32;2.78;;;25.20;99.90;;;;;;5027852;28;20029;-49
2023/06/11 03:49:45;;;;;;;11.73;2.55;;;25.10;99.90;;;;;;5025439;28;20114;-49
2023/06/11 03:52:11;;;;;;;14.07;1.70;;;25.10;99.90;;;;;;5028872;28;20030;-50
2023/06/11 03:54:37;;;;;;;6.47;2.10;;;25.00;99.90;;;;;;5035164;28;20033;-49
2023/06/11 03:57:02;;;;;;;4.32;1.90;;;25.00;99.90;;;;;;5034945;28;20018;-49
2023/06/11 03:59:28;;;;;;;9.57;2.42;;;25.00;99.90;;;;;;5010482;28;20053;-49
2023/06/11 04:01:54;;;;;;;8.25;2.03;;;24.90;99.90;;;;;;5017587;28;20037;-49
2023/06/11 04:04:20;;;;;;;9.95;2.40;;;24.90;99.90;;;;;;5034913;28;20032;-49
2023/06/11 04:06:45;;;;;;;6.47;2.88;;;24.80;99.90;;;;;;5032430;28;20041;-49
2023/06/11 04:09:11;;;;;;;10.27;2.60;;;24.80;99.90;;;;;;5034472;28;20097;-49
2023/06/11 04:11:37;;;;;;;5.80;2.47;;;24.80;99.90;;;;;;5021362;28;20091;-49
2023/06/11 04:14:03;;;;;;;5.90;2.08;;;24.80;99.90;;;;;;5011135;28;20474;-49
2023/06/11 04:16:28;;;;;;;7.57;2.40;;;24.70;99.90;;;;;;5034844;28;20017;-49
2023/06/11 04:18:54;;;;;;;7.30;2.35;;;24.70;99.90;;;;;;5034858;28;20061;-49
2023/06/11 04:21:20;;;;;;;8.88;2.60;;;24.70;99.90;;;;;;5034701;28;20450;-49
2023/06/11 04:23:46;;;;;;;6.13;2.20;;;24.70;99.90;;;;;;5029036;28;20033;-49
2023/06/11 04:26:15;;;;;;;4.40;1.65;;;24.70;99.90;;;;;;5031233;28;20029;-49
2023/06/11 04:28:44;;;;;;;6.72;1.80;;;24.70;99.90;;;;;;5032946;28;20103;-49
2023/06/11 04:31:11;;;;;;;10.77;2.83;;;24.70;99.90;;;;;;5034543;28;20013;-49
2023/06/11 04:33:38;;;;;;;10.82;2.78;;;24.70;99.90;;;;;;5028237;28;20025;-49
2023/06/11 04:36:05;;;;;;;7.75;1.67;;;24.70;99.90;;;;;;5034152;28;20017;-49
2023/06/11 04:38:32;;;;;;;5.72;2.30;;;24.60;99.90;;;;;;5033187;28;20033;-49
2023/06/11 04:40:57;;;;;;;7.60;2.28;;;24.60;99.90;;;;;;5028668;28;20038;-49
2023/06/11 04:43:27;;;;;;;6.57;2.00;;;24.60;99.90;;;;;;5013630;28;20028;-49
2023/06/11 04:45:56;;;;;;;6.00;2.05;;;24.60;99.90;;;;;;5033724;28;20024;-49
2023/06/11 04:48:31;;;;;;;5.43;1.92;;;24.50;99.90;;;;;;5034095;28;20091;-50
2023/06/11 04:50:59;;;;;;;7.68;2.03;;;24.50;99.90;;;;;;5033804;28;20021;-49
2023/06/11 04:53:27;;;;;;;6.57;1.48;;;24.50;99.90;;;;;;5018839;28;20045;-49
2023/06/11 04:55:55;;;;;;;7.35;2.08;;;24.40;99.90;;;;;;5033556;28;20025;-49
2023/06/11 04:58:24;;;;;;;7.63;1.80;;;24.40;99.90;;;;;;5028378;28;20024;-49
2023/06/11 05:00:52;;;;;;;7.93;2.53;;;24.40;99.90;;;;;;5020876;28;20144;-49
2023/06/11 05:03:19;;;;;;;7.07;2.10;;;24.30;99.90;;;;;;5014259;28;20033;-49
2023/06/11 05:05:51;;;;;;;8.60;2.20;;;24.30;99.90;;;;;;5034000;28;20474;-49
2023/06/11 05:08:24;;;;;;;6.28;2.55;;;24.30;99.90;;;;;;5033297;28;20482;-49
2023/06/11 05:10:53;;;;;;;7.82;2.78;;;24.20;99.90;;;;;;5026579;28;20054;-48
2023/06/11 05:13:24;;;;;;;6.28;2.50;;;24.10;99.90;;;;;;5024623;28;20052;-49
2023/06/11 05:15:55;;;;;;;7.95;1.92;;;24.10;99.90;;;;;;5013515;28;20088;-49
2023/06/11 05:18:21;;;;;;;8.02;2.55;;;24.10;99.90;;;;;;5033230;28;20474;-49
2023/06/11 05:20:48;;;;;;;5.72;2.67;;;24.00;99.90;;;;;;5033574;28;20053;-49
2023/06/11 05:23:18;;;;;;;13.05;6.55;;;23.90;99.90;;;;;;5026787;28;20061;-49
2023/06/11 05:25:47;;;;;;;8.20;3.97;;;23.90;99.90;;;;;;5026776;28;20026;-49
2023/06/11 05:28:16;;;;;;;11.60;3.33;;;23.90;99.90;;;;;;5032161;28;20076;-49
2023/06/11 05:30:45;;;;;;;8.68;2.95;;;23.90;99.90;;;;;;5031254;28;20452;-49
2023/06/11 05:33:14;;;;;;;10.88;2.90;;;23.90;99.90;;;;;;5026254;28;20021;-49
2023/06/11 05:35:43;;;;;;;11.52;2.97;;;23.90;99.90;;;;;;5033455;28;20030;-49
2023/06/11 05:38:10;;;;;;;9.60;3.75;;;23.90;99.90;;;;;;5032183;28;20013;-49
2023/06/11 05:40:39;;;;;;;8.35;2.63;;;23.90;99.90;;;;;;5022462;28;20132;-48
2023/06/11 05:43:07;;;;;;;10.65;4.57;;;23.90;99.90;;;;;;5025213;28;20385;-48
2023/06/11 05:45:34;;;;;;;13.25;3.20;;;23.90;99.90;;;;;;5033273;28;20079;-49
2023/06/11 05:48:00;;;;;;;10.80;3.10;;;23.90;99.90;;;;;;5031218;28;20381;-49
2023/06/11 05:50:26;;;;;;;10.23;2.60;;;24.00;99.90;;;;;;5033035;28;20022;-49
2023/06/11 05:52:52;;;;;;;8.45;2.75;;;24.00;99.90;;;;;;5029461;28;20048;-49
2023/06/11 05:55:18;;;;;;;10.45;3.17;;;24.00;99.90;;;;;;5033009;28;20030;-49
2023/06/11 05:57:44;;;;;;;4.40;2.30;;;24.10;99.90;;;;;;5032760;28;20021;-49
2023/06/11 06:00:12;;;;;;;6.82;2.95;;;24.10;99.90;;;;;;5032937;28;20024;-49
2023/06/11 06:02:39;;;;;;;7.75;2.92;;;24.10;99.90;;;;;;5029923;28;20030;-49
2023/06/11 06:05:06;;;;;;;5.85;2.40;;;24.10;99.90;;;;;;5032595;28;20025;-49
2023/06/11 06:07:32;;;;;;;8.18;4.97;;;24.20;99.90;;;;;;5032806;28;20045;-49
2023/06/11 06:09:58;;;;;;;8.05;4.03;;;24.20;99.90;;;;;;5032758;28;20025;-49
2023/06/11 06:12:24;;;;;;;5.15;2.78;;;24.30;99.90;;;;;;5032489;28;20033;-49
2023/06/11 06:14:49;;;;;;;5.32;2.10;;;24.30;99.90;;;;;;5032980;28;20397;-49
2023/06/11 06:17:15;;;;;;;6.25;2.22;;;24.30;99.90;;;;;;5032721;28;20028;-49
2023/06/11 06:19:41;;;;;;;5.78;2.50;;;24.40;99.90;;;;;;5032709;28;20030;-49
2023/06/11 06:22:07;;;;;;;7.45;2.30;;;24.50;99.90;;;;;;5032919;28;20101;-48
2023/06/11 06:24:33;;;;;;;6.43;2.33;;;24.50;99.90;;;;;;5014864;28;20032;-49
2023/06/11 06:26:59;;;;;;;8.77;2.90;;;24.50;99.90;;;;;;5032663;28;20033;-49
2023/06/11 06:29:27;;;;;;;5.35;2.25;;;24.60;99.90;;;;;;5034528;28;20352;-49
2023/06/11 06:31:54;;;;;;;6.65;2.60;;;24.60;99.90;;;;;;5036838;28;20030;-49
2023/06/11 06:34:19;;;;;;;7.13;2.13;;;24.60;99.90;;;;;;5032514;28;20391;-48
2023/06/11 06:36:46;;;;;;;8.88;2.75;;;24.50;99.90;;;;;;5028042;28;20025;-49
2023/06/11 06:39:11;;;;;;;8.40;2.63;;;24.50;99.90;;;;;;5036412;28;20359;-49
2023/06/11 06:41:37;;;;;;;7.93;2.97;;;24.50;99.90;;;;;;5036647;28;20040;-49
2023/06/11 06:44:03;;;;;;;14.63;2.55;;;24.40;99.90;;;;;;5036286;28;20039;-49
2023/06/11 06:46:30;;;;;;;11.18;3.13;;;24.40;99.90;;;;;;5036448;28;20029;-49
2023/06/11 06:48:56;;;;;;;7.95;2.42;;;24.40;99.90;;;;;;5022340;28;20030;-49
2023/06/11 06:51:21;;;;;;;6.80;2.40;;;24.40;99.90;;;;;;5036747;28;20124;-49
2023/06/11 06:53:47;;;;;;;13.18;3.30;;;24.40;99.90;;;;;;5025792;28;20068;-49
2023/06/11 06:56:14;;;;;;;5.47;2.40;;;24.30;99.90;;;;;;5021383;28;20027;-49
2023/06/11 06:58:39;;;;;;;8.57;2.45;;;24.30;99.90;;;;;;5035995;28;20017;-49
2023/06/11 07:01:05;;;;;;;10.20;2.15;;;24.30;99.90;;;;;;5022565;28;20148;-49
2023/06/11 07:03:33;;;;;;;7.97;2.65;;;24.30;99.90;;;;;;5036118;28;20407;-48
2023/06/11 07:06:00;;;;;;;10.93;2.60;;;24.30;99.90;;;;;;5020588;28;20018;-50
2023/06/11 07:08:26;;;;;;;6.65;1.65;;;24.30;99.90;;;;;;5036055;28;20084;-48
2023/06/11 07:10:54;;;;;;;8.82;2.90;;;24.30;99.90;;;;;;5035802;28;20417;-49
2023/06/11 07:13:21;;;;;;;9.95;3.05;;;24.30;99.90;;;;;;5035929;28;20025;-48
2023/06/11 07:15:47;;;;;;;11.15;2.47;;;24.40;99.90;;;;;;5035746;28;20018;-49
2023/06/11 07:18:13;;;;;;;10.63;2.20;;;24.30;99.90;;;;;;5034492;28;20470;-48
2023/06/11 07:20:39;;;;;;;7.75;2.90;;;24.40;99.90;;;;;;5035655;28;20044;-48
2023/06/11 07:23:05;;;;;;;9.18;2.20;;;24.40;99.90;;;;;;5032572;28;20026;-48
2023/06/11 07:25:30;;;;;;;5.72;2.40;;;24.40;99.90;;;;;;5035567;28;20025;-48
2023/06/11 07:28:01;;;;;;;5.75;1.65;;;24.50;99.90;;;;;;5035410;28;20029;-48
2023/06/11 07:30:31;;;;;;;5.18;1.80;;;24.50;99.90;;;;;;5035497;28;20029;-49
2023/06/11 07:32:57;;;;;;;5.95;1.65;;;24.60;99.90;;;;;;5030179;28;20018;-48
2023/06/11 07:35:24;;;;;;;7.55;2.10;;;24.50;99.90;;;;;;5028051;28;20021;-49
2023/06/11 07:37:51;;;;;;;6.45;1.85;;;24.60;99.90;;;;;;5035503;28;20084;-49
2023/06/11 07:40:17;;;;;;;6.60;2.42;;;24.60;99.90;;;;;;5019594;28;20054;-49
2023/06/11 07:42:44;;;;;;;8.98;1.70;;;24.70;99.90;;;;;;5031015;28;20060;-49
2023/06/11 07:45:11;;;;;;;10.23;2.40;;;24.70;99.90;;;;;;5026605;28;20029;-50
2023/06/11 07:47:37;;;;;;;7.53;2.13;;;24.70;99.90;;;;;;5022132;28;20072;-49
2023/06/11 07:50:04;;;;;;;7.03;2.30;;;24.80;99.90;;;;;;5035261;28;20053;-49
2023/06/11 07:52:30;;;;;;;8.85;2.03;;;24.70;99.90;;;;;;5025900;28;20026;-49
2023/06/11 07:54:55;;;;;;;4.28;1.70;;;24.80;99.90;;;;;;5018337;28;20026;-50
2023/06/11 07:57:22;;;;;;;6.25;2.15;;;24.80;99.90;;;;;;5002155;28;20023;-50
2023/06/11 07:59:47;;;;;;;9.55;1.83;;;24.90;99.90;;;;;;5010319;28;20025;-49
2023/06/11 08:02:14;;;;;;;8.18;1.63;;;24.90;99.90;;;;;;5034628;28;20055;-50
2023/06/11 08:04:40;;;;;;;5.15;1.63;;;24.90;99.90;;;;;;5030578;28;20022;-49
2023/06/11 08:07:07;;;;;;;7.30;2.10;;;24.90;99.90;;;;;;5023177;28;20030;-50
2023/06/11 08:09:37;;;;;;;3.53;1.95;;;25.00;99.90;;;;;;5034575;28;20079;-49
2023/06/11 08:12:06;;;;;;;3.97;1.90;;;24.90;99.90;;;;;;5034608;28;20413;-50
2023/06/11 08:14:33;;;;;;;5.72;1.85;;;25.00;99.90;;;;;;5009760;28;20102;-50
2023/06/11 08:16:59;;;;;;;4.10;1.73;;;25.00;99.90;;;;;;5009436;28;20507;-50
2023/06/11 08:19:26;;;;;;;12.52;2.17;;;25.00;99.90;;;;;;5022543;28;20041;-49
2023/06/11 08:21:54;;;;;;;5.57;2.08;;;25.00;99.90;;;;;;5034467;28;20109;-49
2023/06/11 08:24:21;;;;;;;5.82;1.70;;;25.10;99.90;;;;;;5033974;28;20382;-49
2023/06/11 08:26:47;;;;;;;6.25;2.08;;;25.10;99.90;;;;;;5034459;28;20024;-49
2023/06/11 08:29:13;;;;;;;7.72;2.17;;;25.10;99.90;;;;;;5026225;28;20416;-49
2023/06/11 08:31:40;;;;;;;7.32;1.95;;;25.10;99.90;;;;;;5015697;28;20586;-49
2023/06/11 08:34:05;;;;;;;7.28;1.80;;;25.20;99.90;;;;;;5014961;28;20041;-49
2023/06/11 08:36:31;;;;;;;5.55;1.90;;;25.20;99.90;;;;;;5030369;28;20429;-49
2023/06/11 08:38:57;;;;;;;6.47;2.15;;;25.20;99.90;;;;;;5021810;28;20128;-49
2023/06/11 08:41:23;;;;;;;5.80;1.90;;;25.20;99.90;;;;;;5033563;28;20493;-49
2023/06/11 08:43:50;;;;;;;5.65;2.13;;;25.20;99.90;;;;;;5020306;28;20025;-49
2023/06/11 08:46:17;;;;;;;5.25;1.90;;;25.20;99.90;;;;;;5029741;28;20540;-49
2023/06/11 08:48:44;;;;;;;5.40;1.75;;;25.20;99.90;;;;;;5034048;28;20367;-49
2023/06/11 08:51:12;;;;;;;5.82;2.15;;;25.30;99.90;;;;;;5014642;28;20075;-49
2023/06/11 08:53:39;;;;;;;7.35;2.47;;;25.30;99.90;;;;;;5015520;28;20026;-49
2023/06/11 08:56:08;;;;;;;7.40;1.60;;;25.30;99.90;;;;;;5033824;28;20077;-49
2023/06/11 08:58:35;;;;;;;6.63;1.80;;;25.30;99.90;;;;;;5033920;28;20025;-49
2023/06/11 09:01:09;;;;;;;5.68;2.30;;;25.30;99.90;;;;;;5033512;28;20038;-49
2023/06/11 09:03:35;;;;;;;6.20;2.30;;;25.40;99.90;;;;;;5022394;28;20041;-49
2023/06/11 09:06:01;;;;;;;7.20;2.30;;;25.40;99.90;;;;;;5033783;28;20017;-51
2023/06/11 09:08:27;;;;;;;5.05;1.90;;;25.40;99.90;;;;;;5033280;28;20084;-49
2023/06/11 09:10:53;;;;;;;6.32;2.20;;;25.40;99.90;;;;;;5033450;28;20049;-49
2023/06/11 09:13:23;;;;;;;5.40;1.70;;;25.40;99.90;;;;;;5013823;28;20056;-49
2023/06/11 09:15:52;;;;;;;7.80;2.10;;;25.40;99.90;;;;;;5018925;28;20048;-52
2023/06/11 09:18:23;;;;;;;5.78;1.60;;;25.40;99.90;;;;;;5016426;28;20041;-51
2023/06/11 09:20:53;;;;;;;4.70;1.90;;;25.40;99.90;;;;;;5025568;28;20139;-50
2023/06/11 09:23:27;;;;;;;7.72;2.10;;;25.30;99.90;;;;;;5033521;28;20017;-51
2023/06/11 09:25:53;;;;;;;6.30;2.90;;;25.30;99.90;;;;;;5033546;28;20021;-51
2023/06/11 09:28:19;;;;;;;6.13;2.42;;;25.30;99.90;;;;;;5031996;28;20083;-51
2023/06/11 09:30:55;;;;;;;6.63;2.25;;;25.30;99.90;;;;;;5033525;28;20112;-51
2023/06/11 09:33:22;;;;;;;6.65;2.15;;;25.30;99.90;;;;;;5020019;28;20148;-53
2023/06/11 09:35:48;;;;;;;5.57;1.90;;;25.30;99.90;;;;;;5029910;28;20021;-54
2023/06/11 09:38:18;;;;;;;4.75;1.67;;;25.30;99.90;;;;;;5033029;28;20041;-52
2023/06/11 09:40:48;;;;;;;5.30;1.98;;;25.30;99.90;;;;;;5044885;28;20112;-52
2023/06/11 09:43:14;;;;;;;4.25;1.45;;;25.30;99.90;;;;;;5022121;28;20079;-51
2023/06/11 09:45:43;;;;;;;3.80;2.33;;;25.40;99.90;;;;;;5033077;28;20014;-52
2023/06/11 09:48:11;;;;;;;5.32;2.65;;;25.40;99.90;;;;;;5013170;28;20036;-51
2023/06/11 09:50:38;;;;;;;8.30;2.70;;;25.40;99.90;;;;;;5013551;28;20026;-51
2023/06/11 09:53:05;;;;;;;6.25;2.15;;;25.40;99.90;;;;;;5012916;28;21096;-50
2023/06/11 09:55:34;;;;;;;8.77;2.90;;;25.40;99.90;;;;;;5047104;28;20040;-52
2023/06/11 09:58:02;;;;;;;7.82;2.65;;;25.40;99.90;;;;;;5025086;28;20021;-51
2023/06/11 10:00:28;;;;;;;7.80;2.92;;;25.40;99.90;;;;;;5027468;28;20013;-50
2023/06/11 10:02:54;;;;;;;9.67;3.27;;;25.40;99.90;;;;;;5032291;28;20037;-49
2023/06/11 10:05:20;;;;;;;8.23;2.42;;;25.50;99.90;;;;;;5024055;28;20266;-50
2023/06/11 10:08:02;;;;;;;7.38;2.88;;;25.50;99.90;;;;;;5014842;28;20042;-50
2023/06/11 10:10:33;;;;;;;4.78;2.65;;;25.60;99.90;;;;;;5025432;28;20026;-50
2023/06/11 10:12:59;;;;;;;9.70;2.90;;;25.70;99.90;;;;;;5032566;28;20022;-49
2023/06/11 10:15:25;;;;;;;21.88;2.75;;;25.70;99.90;;;;;;5016229;28;20019;-51
2023/06/11 10:17:54;;;;;;;6.47;2.35;;;25.80;99.90;;;;;;5009618;28;20037;-50
2023/06/11 10:20:29;;;;;;;5.30;2.22;;;25.80;99.90;;;;;;5025920;28;20018;-51
2023/06/11 10:23:11;;;;;;;7.88;2.88;;;25.90;99.90;;;;;;5030908;28;20558;-51
2023/06/11 10:25:39;;;;;;;13.23;7.10;;;25.90;99.90;;;;;;5023194;28;20394;-51
2023/06/11 10:28:06;;;;;;;10.63;6.18;;;25.90;99.90;;;;;;5018895;28;20030;-51
2023/06/11 10:30:32;;;;;;;13.18;5.97;;;26.00;99.90;;;;;;5019130;28;20041;-50
2023/06/11 10:33:00;;;;;;;13.98;5.13;;;26.00;99.90;;;;;;5026185;28;20025;-49
2023/06/11 10:35:36;;;;;;;12.65;5.63;;;26.10;99.90;;;;;;5023391;28;20022;-50
2023/06/11 10:38:06;;;;;;;13.15;5.72;;;26.10;99.90;;;;;;5027527;28;20030;-51
2023/06/11 10:40:37;;;;;;;14.23;5.57;;;26.10;99.90;;;;;;5024065;28;20365;-51
2023/06/11 10:43:16;;;;;;;10.65;5.00;;;26.10;99.90;;;;;;5032486;28;20359;-50
2023/06/11 10:45:42;;;;;;;15.05;6.07;;;26.10;99.90;;;;;;5026995;28;20022;-48
2023/06/11 10:48:10;;;;;;;12.38;5.78;;;26.10;99.90;;;;;;5032292;28;20045;-50
2023/06/11 10:50:36;;;;;;;14.20;5.20;;;26.10;99.90;;;;;;5032332;28;20017;-49
2023/06/11 10:53:08;;;;;;;14.85;4.70;;;26.10;99.90;;;;;;5030784;28;20367;-50
2023/06/11 10:55:34;;;;;;;16.15;5.00;;;26.10;99.90;;;;;;5022296;28;20021;-51
2023/06/11 10:58:01;;;;;;;18.50;5.23;;;26.10;99.90;;;;;;5032222;28;20025;-50
2023/06/11 11:00:32;;;;;;;17.42;4.90;;;26.10;99.90;;;;;;5032263;28;20255;-51
2023/06/11 11:03:00;;;;;;;11.82;4.50;;;26.10;99.90;;;;;;5032218;28;20052;-51
2023/06/11 11:05:26;;;;;;;16.33;5.95;;;26.10;99.90;;;;;;5020496;28;20097;-52
2023/06/11 11:07:53;;;;;;;12.73;4.80;;;26.10;99.90;;;;;;5031922;28;20470;-51
2023/06/11 11:10:24;;;;;;;14.95;5.07;;;26.10;99.90;;;;;;5026297;28;20018;-50
2023/06/11 11:12:50;;;;;;;14.85;5.90;;;26.10;99.90;;;;;;5025620;28;20037;-50
2023/06/11 11:15:16;;;;;;;16.20;5.80;;;26.20;99.90;;;;;;5012167;28;20029;-49
2023/06/11 11:17:43;;;;;;;17.05;5.10;;;26.20;99.90;;;;;;5016217;28;20485;-49
2023/06/11 11:20:14;;;;;;;12.20;5.25;;;26.20;99.90;;;;;;5033766;28;20033;-50
2023/06/11 11:22:40;;;;;;;10.05;4.72;;;26.20;99.90;;;;;;5022683;28;20027;-49
2023/06/11 11:25:07;;;;;;;11.98;4.43;;;26.20;99.90;;;;;;5013417;28;20046;-48
2023/06/11 11:27:35;;;;;;;18.95;8.27;;;26.20;99.90;;;;;;5003780;28;20038;-48
2023/06/11 11:30:03;;;;;;;16.63;7.55;;;26.20;99.90;;;;;;5032507;28;20041;-49
2023/06/11 11:32:35;;;;;;;10.27;5.43;;;26.20;99.90;;;;;;5032215;28;20030;-50
2023/06/11 11:35:03;;;;;;;18.15;7.38;;;26.20;99.90;;;;;;5034827;28;20409;-49
2023/06/11 11:37:29;;;;;;;14.60;5.22;;;26.20;99.90;;;;;;5031478;28;20465;-49
2023/06/11 11:39:56;;;;;;;14.45;6.00;;;26.20;99.90;;;;;;5035225;28;20051;-48
2023/06/11 11:42:23;;;;;;;14.55;5.43;;;26.20;99.90;;;;;;5040809;28;20022;-49
2023/06/11 11:44:53;;;;;;;24.45;7.03;;;26.20;99.90;;;;;;5012909;28;20022;-51
2023/06/11 11:47:21;;;;;;;15.93;6.32;;;26.20;99.90;;;;;;5015477;28;20033;-48
2023/06/11 11:49:57;;;;;;;19.80;6.57;;;26.20;99.90;;;;;;5021632;28;20054;-50
2023/06/11 11:52:23;;;;;;;12.70;4.50;;;26.20;99.90;;;;;;5022039;28;20033;-50
2023/06/11 11:54:50;;;;;;;21.08;6.90;;;26.30;99.90;;;;;;5012121;28;20042;-51
2023/06/11 11:57:25;;;;;;;12.90;6.60;;;26.20;99.90;;;;;;5017545;28;20056;-50
2023/06/11 11:59:53;;;;;;;12.95;4.22;;;26.20;99.90;;;;;;5017356;28;20804;-51
2023/06/11 12:02:25;;;;;;;14.30;3.70;;;26.30;99.90;;;;;;5011925;28;20042;-50
2023/06/11 12:04:52;;;;;;;9.43;3.47;;;26.30;99.90;;;;;;5022151;28;20026;-50
2023/06/11 12:07:18;;;;;;;9.85;3.00;;;26.30;99.90;;;;;;5020011;28;20030;-50
2023/06/11 12:09:43;;;;;;;10.98;4.18;;;26.30;99.90;;;;;;5015940;28;20026;-50
2023/06/11 12:12:10;;;;;;;11.77;5.82;;;26.40;99.90;;;;;;5015086;28;20096;-50
2023/06/11 12:14:36;;;;;;;15.00;6.13;;;26.40;99.90;;;;;;5025116;28;20378;-50
2023/06/11 12:17:04;;;;;;;13.87;6.13;;;26.40;99.90;;;;;;5014500;28;20453;-50
2023/06/11 12:19:31;;;;;;;15.48;4.50;;;26.40;99.90;;;;;;5017011;28;20036;-51
2023/06/11 12:21:57;;;;;;;7.13;3.25;;;26.40;99.90;;;;;;5015841;28;20036;-50
2023/06/11 12:24:23;;;;;;;11.32;3.28;;;26.40;99.90;;;;;;5016416;28;20113;-51
2023/06/11 12:26:51;;;;;;;14.27;5.10;;;26.50;99.90;;;;;;5011985;28;20096;-51
2023/06/11 12:29:17;;;;;;;9.10;4.30;;;26.50;99.90;;;;;;5014992;28;20033;-50
2023/06/11 12:31:45;;;;;;;12.52;5.68;;;26.50;99.90;;;;;;5013709;28;20026;-50
2023/06/11 12:34:14;;;;;;;13.52;5.85;;;26.50;99.90;;;;;;5017770;28;20022;-50
2023/06/11 12:36:41;;;;;;;12.35;5.82;;;26.50;99.90;;;;;;5020564;28;20022;-51
2023/06/11 12:39:07;;;;;;;14.25;4.20;;;26.50;99.90;;;;;;5014053;28;20359;-51
2023/06/11 12:41:33;;;;;;;10.23;3.92;;;26.50;99.90;;;;;;5014985;28;20490;-51
2023/06/11 12:43:59;;;;;;;8.95;3.40;;;26.60;99.90;;;;;;5018078;28;20028;-51
2023/06/11 12:46:26;;;;;;;11.77;4.68;;;26.60;99.90;;;;;;5021701;28;20477;-52